Time;durP1;ratioP1;P1;durP2;ratioP2;P2;SDS_P1;SDS_P2;PMS_P1;PMS_P2;Temp;Humidity;BMP_temperature;BMP_pressure;BME280_temperature;BME280_humidity;BME280_pressure;Samples;Min_cycle;Max_cycle;Signal;HPM_P1;HPM_P2
2021/11/04 00:00:28;;;;;;;25.65;3.42;;;17.20;99.90;;;;;;5032423;28;20371;-71
2021/11/04 00:02:55;;;;;;;27.75;4.30;;;17.20;99.90;;;;;;5034327;28;20492;-71
2021/11/04 00:05:20;;;;;;;41.97;4.28;;;17.30;99.90;;;;;;5029508;28;20065;-71
2021/11/04 00:07:48;;;;;;;20.38;3.72;;;17.30;99.90;;;;;;5034549;28;20533;-71
2021/11/04 00:10:15;;;;;;;19.85;3.40;;;17.40;99.90;;;;;;5032480;28;20033;-72
2021/11/04 00:12:41;;;;;;;20.55;3.30;;;17.40;99.90;;;;;;5034335;28;20033;-71
2021/11/04 00:15:07;;;;;;;22.67;3.83;;;17.50;99.90;;;;;;5030995;28;20116;-70
2021/11/04 00:17:32;;;;;;;21.92;4.03;;;17.40;99.90;;;;;;5026160;28;20037;-71
2021/11/04 00:19:58;;;;;;;20.00;4.25;;;17.40;99.90;;;;;;5028815;28;20423;-70
2021/11/04 00:22:24;;;;;;;19.92;4.03;;;17.40;99.90;;;;;;5033215;28;20386;-71
2021/11/04 00:24:50;;;;;;;23.33;3.88;;;17.40;99.90;;;;;;5034225;28;20137;-71
2021/11/04 00:27:15;;;;;;;20.20;4.90;;;17.50;99.90;;;;;;5033257;28;20394;-71
2021/11/04 00:29:41;;;;;;;25.80;4.30;;;17.40;99.90;;;;;;5033903;28;20100;-70
2021/11/04 00:32:07;;;;;;;20.90;3.90;;;17.40;99.90;;;;;;5031865;28;20036;-71
2021/11/04 00:34:33;;;;;;;19.83;3.83;;;17.40;99.90;;;;;;5033592;28;20200;-71
2021/11/04 00:36:58;;;;;;;19.65;3.38;;;17.30;99.90;;;;;;5011759;28;20040;-71
2021/11/04 00:39:24;;;;;;;23.13;3.80;;;17.40;99.90;;;;;;5034235;28;20038;-71
2021/11/04 00:41:50;;;;;;;25.75;3.92;;;17.40;99.90;;;;;;5033494;28;20034;-71
2021/11/04 00:44:16;;;;;;;25.02;4.65;;;17.40;99.90;;;;;;5032604;28;20510;-71
2021/11/04 00:46:42;;;;;;;22.48;4.13;;;17.40;99.90;;;;;;5031754;28;20044;-70
2021/11/04 00:49:07;;;;;;;17.17;3.35;;;17.50;99.90;;;;;;5029970;28;20025;-71
2021/11/04 00:51:33;;;;;;;20.85;3.95;;;17.50;99.90;;;;;;5033921;28;20316;-71
2021/11/04 00:53:59;;;;;;;15.88;3.05;;;17.60;99.90;;;;;;5027974;28;20111;-71
2021/11/04 00:56:25;;;;;;;15.05;2.88;;;17.60;99.90;;;;;;5016135;28;20609;-71
2021/11/04 00:58:51;;;;;;;12.45;2.90;;;17.70;99.90;;;;;;5032953;28;20067;-71
2021/11/04 01:01:21;;;;;;;18.30;3.45;;;17.70;99.90;;;;;;5033354;28;20029;-71
2021/11/04 01:03:48;;;;;;;13.65;3.05;;;17.90;99.90;;;;;;5023671;28;20045;-70
2021/11/04 01:06:14;;;;;;;19.85;3.88;;;17.90;99.90;;;;;;5030748;28;20112;-71
2021/11/04 01:08:40;;;;;;;13.88;3.40;;;17.80;99.90;;;;;;5032949;28;20033;-71
2021/11/04 01:11:07;;;;;;;15.98;3.47;;;17.80;99.90;;;;;;5032924;28;20045;-71
2021/11/04 01:13:33;;;;;;;18.15;3.28;;;17.90;99.90;;;;;;5033434;28;20029;-70
2021/11/04 01:15:59;;;;;;;16.58;3.28;;;17.90;99.90;;;;;;5033455;28;20068;-72
2021/11/04 01:18:25;;;;;;;14.25;3.08;;;18.00;99.90;;;;;;5032114;28;20061;-71
2021/11/04 01:20:50;;;;;;;20.13;3.63;;;18.00;99.90;;;;;;5033120;28;20018;-70
2021/11/04 01:23:16;;;;;;;24.98;3.10;;;18.00;99.90;;;;;;5025315;28;20444;-70
2021/11/04 01:25:42;;;;;;;17.83;3.70;;;18.00;99.90;;;;;;5032973;28;20029;-70
2021/11/04 01:28:08;;;;;;;24.05;3.58;;;18.00;99.90;;;;;;5032755;28;20037;-69
2021/11/04 01:30:38;;;;;;;12.40;2.72;;;18.10;99.90;;;;;;5024726;28;20397;-70
2021/11/04 01:33:04;;;;;;;11.45;1.95;;;18.10;99.90;;;;;;5033087;28;20033;-70
2021/11/04 01:35:31;;;;;;;16.27;2.60;;;18.00;99.90;;;;;;5017215;28;20073;-71
2021/11/04 01:38:01;;;;;;;16.67;3.28;;;18.00;99.90;;;;;;5022244;28;20513;-70
2021/11/04 01:40:27;;;;;;;20.77;2.47;;;17.90;99.90;;;;;;5032333;28;20509;-71
2021/11/04 01:42:55;;;;;;;13.70;2.63;;;17.80;99.90;;;;;;5032121;28;20057;-70
2021/11/04 01:45:21;;;;;;;18.73;3.22;;;17.70;99.90;;;;;;5014416;28;20073;-70
2021/11/04 01:47:47;;;;;;;12.40;2.45;;;17.60;99.90;;;;;;5031099;28;20482;-70
2021/11/04 01:50:14;;;;;;;14.70;2.60;;;17.70;99.90;;;;;;5032348;28;20049;-70
2021/11/04 01:52:40;;;;;;;17.38;2.83;;;17.80;99.90;;;;;;5030804;28;20468;-70
2021/11/04 01:55:06;;;;;;;18.60;3.30;;;17.80;99.90;;;;;;5023072;28;20117;-70
2021/11/04 01:57:32;;;;;;;15.95;3.30;;;17.80;99.90;;;;;;5031147;28;20445;-70
2021/11/04 01:59:57;;;;;;;26.52;3.42;;;17.80;99.90;;;;;;5027087;28;20029;-71
2021/11/04 02:02:27;;;;;;;21.80;4.15;;;17.80;99.90;;;;;;5032526;28;20064;-71
2021/11/04 02:04:59;;;;;;;19.50;3.65;;;17.80;99.90;;;;;;5029907;28;20554;-71
2021/11/04 02:07:33;;;;;;;24.85;3.45;;;17.70;99.90;;;;;;5031820;28;20039;-71
2021/11/04 02:10:20;;;;;;;27.55;3.92;;;17.70;99.90;;;;;;5031289;28;20068;-70
2021/11/04 02:13:01;;;;;;;14.02;2.80;;;17.70;99.90;;;;;;5025425;28;20037;-71
2021/11/04 02:15:31;;;;;;;15.98;3.00;;;17.60;99.90;;;;;;5027686;28;20453;-70
2021/11/04 02:17:58;;;;;;;27.40;3.58;;;17.60;99.90;;;;;;5032428;28;20053;-70
2021/11/04 02:20:37;;;;;;;17.48;2.35;;;17.60;99.90;;;;;;5030191;28;20061;-70
2021/11/04 02:23:17;;;;;;;15.35;2.63;;;17.60;99.90;;;;;;5031138;28;20025;-70
2021/11/04 02:25:44;;;;;;;17.02;2.33;;;17.60;99.90;;;;;;5029871;28;20033;-70
2021/11/04 02:28:13;;;;;;;12.82;2.95;;;17.60;99.90;;;;;;5014181;28;20064;-71
2021/11/04 02:30:40;;;;;;;25.83;2.70;;;17.60;99.90;;;;;;5025140;28;20045;-70
2021/11/04 02:33:07;;;;;;;17.25;2.75;;;17.50;99.90;;;;;;5032053;28;20045;-72
2021/11/04 02:35:33;;;;;;;15.30;2.60;;;17.50;99.90;;;;;;5031292;28;20057;-69
2021/11/04 02:37:59;;;;;;;13.85;2.00;;;17.50;99.90;;;;;;5030522;28;20037;-71
2021/11/04 02:40:25;;;;;;;18.90;2.67;;;17.50;99.90;;;;;;5029671;28;20030;-71
2021/11/04 02:42:52;;;;;;;18.10;2.67;;;17.50;99.90;;;;;;5031373;28;20025;-70
2021/11/04 02:45:25;;;;;;;23.05;4.10;;;17.50;99.90;;;;;;5030171;28;20037;-70
2021/11/04 02:47:51;;;;;;;19.63;2.47;;;17.50;99.90;;;;;;5031797;28;20642;-69
2021/11/04 02:50:18;;;;;;;17.63;2.75;;;17.50;99.90;;;;;;5030858;28;20052;-70
2021/11/04 02:52:45;;;;;;;13.88;2.72;;;17.50;99.90;;;;;;5021411;28;20564;-71
2021/11/04 02:55:11;;;;;;;14.13;2.55;;;17.50;99.90;;;;;;5029919;28;20037;-70
2021/11/04 02:57:48;;;;;;;14.25;2.03;;;17.50;99.90;;;;;;5031441;28;20474;-70
2021/11/04 03:00:16;;;;;;;13.45;1.65;;;17.50;99.90;;;;;;5028305;28;20037;-70
2021/11/04 03:02:42;;;;;;;19.55;2.33;;;17.50;99.90;;;;;;5025046;28;20045;-71
2021/11/04 03:05:08;;;;;;;11.15;1.85;;;17.50;99.90;;;;;;5029942;28;20029;-71
2021/11/04 03:07:34;;;;;;;11.88;2.20;;;17.50;99.90;;;;;;5031231;28;20087;-70
2021/11/04 03:09:59;;;;;;;9.10;1.70;;;17.50;99.90;;;;;;5031559;28;20049;-71
2021/11/04 03:12:25;;;;;;;13.45;1.90;;;17.50;99.90;;;;;;5023732;28;20463;-70
2021/11/04 03:14:52;;;;;;;16.35;1.70;;;17.50;99.90;;;;;;5024905;28;20045;-69
2021/11/04 03:17:19;;;;;;;7.43;1.90;;;17.60;99.90;;;;;;5031446;28;20048;-70
2021/11/04 03:19:46;;;;;;;16.55;3.28;;;17.50;99.90;;;;;;5027898;28;20042;-70
2021/11/04 03:22:12;;;;;;;7.53;1.58;;;17.50;99.90;;;;;;5030995;28;20045;-70
2021/11/04 03:24:37;;;;;;;11.30;2.50;;;17.50;99.90;;;;;;5009439;28;20049;-71
2021/11/04 03:27:07;;;;;;;13.02;2.13;;;17.40;99.90;;;;;;5030983;28;20037;-71
2021/11/04 03:29:36;;;;;;;10.75;1.65;;;17.40;99.90;;;;;;5020828;28;20057;-71
2021/11/04 03:32:05;;;;;;;11.18;1.67;;;17.40;99.90;;;;;;5024197;28;20497;-71
2021/11/04 03:34:34;;;;;;;17.80;2.25;;;17.40;99.90;;;;;;5022508;28;20417;-70
2021/11/04 03:37:03;;;;;;;21.52;2.40;;;17.40;99.90;;;;;;5031306;28;20485;-71
2021/11/04 03:39:29;;;;;;;16.63;2.63;;;17.40;99.90;;;;;;5029972;28;20033;-72
2021/11/04 03:41:56;;;;;;;20.85;2.38;;;17.40;99.90;;;;;;5029013;28;20033;-70
2021/11/04 03:44:23;;;;;;;17.92;2.72;;;17.40;99.90;;;;;;5013673;28;20065;-71
2021/11/04 03:46:52;;;;;;;24.40;3.10;;;17.40;99.90;;;;;;5031464;28;20080;-70
2021/11/04 03:49:19;;;;;;;17.70;2.08;;;17.40;99.90;;;;;;5031559;28;20038;-70
2021/11/04 03:51:48;;;;;;;28.42;2.88;;;17.40;99.90;;;;;;5030824;28;20040;-71
2021/11/04 03:54:15;;;;;;;36.88;3.78;;;17.30;99.90;;;;;;5028530;28;20056;-70
2021/11/04 03:56:41;;;;;;;25.45;3.88;;;17.10;99.90;;;;;;5029038;28;20025;-71
2021/11/04 03:59:08;;;;;;;22.38;3.30;;;16.90;99.90;;;;;;5029358;28;20174;-70
2021/11/04 04:01:34;;;;;;;26.88;3.25;;;16.60;99.90;;;;;;5031226;28;20104;-71
2021/11/04 04:04:04;;;;;;;19.30;4.43;;;16.40;99.90;;;;;;5030053;28;20042;-71
2021/11/04 04:06:30;;;;;;;23.52;3.38;;;16.20;99.90;;;;;;5033261;28;20148;-71
2021/11/04 04:08:56;;;;;;;17.92;2.63;;;16.20;99.90;;;;;;5034763;28;20498;-72
2021/11/04 04:11:23;;;;;;;18.15;2.58;;;16.20;99.90;;;;;;5034578;28;20493;-71
2021/11/04 04:13:54;;;;;;;20.98;3.10;;;16.20;99.90;;;;;;5030455;28;20069;-71
2021/11/04 04:16:19;;;;;;;15.70;2.30;;;16.10;99.90;;;;;;5034602;28;20071;-71
2021/11/04 04:18:45;;;;;;;11.43;2.20;;;16.10;99.90;;;;;;5026952;28;20296;-71
2021/11/04 04:21:11;;;;;;;13.82;2.33;;;16.10;99.90;;;;;;5029852;28;20045;-69
2021/11/04 04:23:36;;;;;;;13.80;1.70;;;16.00;99.90;;;;;;5028502;28;20076;-71
2021/11/04 04:26:02;;;;;;;11.55;1.92;;;16.00;99.90;;;;;;5028972;28;20037;-70
2021/11/04 04:28:28;;;;;;;12.68;1.17;;;16.00;99.90;;;;;;5034597;28;20038;-70
2021/11/04 04:30:54;;;;;;;9.43;1.15;;;15.90;99.90;;;;;;5030327;28;20057;-71
2021/11/04 04:33:19;;;;;;;6.97;1.27;;;15.90;99.90;;;;;;5033407;28;20030;-70
2021/11/04 04:35:45;;;;;;;11.35;1.83;;;15.80;99.90;;;;;;5032909;28;20075;-70
2021/11/04 04:38:11;;;;;;;8.20;1.40;;;15.80;99.90;;;;;;5034105;28;20030;-70
2021/11/04 04:40:36;;;;;;;7.25;1.42;;;15.80;99.90;;;;;;5033598;28;20498;-70
2021/11/04 04:43:02;;;;;;;9.00;2.08;;;15.70;99.90;;;;;;5032124;28;20034;-70
2021/11/04 04:45:28;;;;;;;17.77;2.38;;;15.70;99.90;;;;;;5016105;28;20048;-69
2021/11/04 04:47:54;;;;;;;25.30;1.85;;;15.70;99.90;;;;;;5033730;28;20030;-70
2021/11/04 04:50:19;;;;;;;12.13;2.33;;;15.70;99.90;;;;;;5033586;28;20100;-70
2021/11/04 04:52:45;;;;;;;20.45;2.45;;;15.60;99.90;;;;;;5032743;28;20046;-70
2021/11/04 04:55:11;;;;;;;14.50;2.80;;;15.60;99.90;;;;;;5029970;28;20109;-70
2021/11/04 04:57:37;;;;;;;15.77;2.58;;;15.60;99.90;;;;;;5033822;28;20038;-71
2021/11/04 05:00:11;;;;;;;27.50;3.40;;;15.50;99.90;;;;;;5033065;28;20029;-70
2021/11/04 05:02:37;;;;;;;20.30;2.67;;;15.50;99.90;;;;;;5021115;28;20099;-70
2021/11/04 05:05:03;;;;;;;14.07;1.83;;;15.50;99.90;;;;;;5033113;28;20052;-71
2021/11/04 05:07:28;;;;;;;17.65;2.67;;;15.50;99.90;;;;;;5033348;28;20561;-70
2021/11/04 05:09:54;;;;;;;15.15;2.08;;;15.50;99.90;;;;;;5033177;28;20061;-70
2021/11/04 05:12:20;;;;;;;16.50;2.70;;;15.50;99.90;;;;;;5024709;28;20037;-70
2021/11/04 05:14:46;;;;;;;13.50;2.22;;;15.40;99.90;;;;;;5031939;28;20034;-69
2021/11/04 05:17:12;;;;;;;9.60;1.88;;;15.40;99.90;;;;;;5031920;28;20116;-70
2021/11/04 05:19:38;;;;;;;14.60;2.63;;;15.40;99.90;;;;;;5031974;28;20129;-69
2021/11/04 05:22:04;;;;;;;16.02;2.25;;;15.40;99.90;;;;;;5033281;28;20469;-71
2021/11/04 05:24:34;;;;;;;13.40;1.75;;;15.40;99.90;;;;;;5025326;28;20045;-71
2021/11/04 05:27:00;;;;;;;20.33;2.85;;;15.40;99.90;;;;;;5028558;28;20426;-71
2021/11/04 05:29:27;;;;;;;8.30;2.10;;;15.40;99.90;;;;;;5032261;28;20446;-70
2021/11/04 05:31:53;;;;;;;21.63;2.33;;;15.40;99.90;;;;;;5032107;28;20045;-70
2021/11/04 05:34:18;;;;;;;18.33;2.75;;;15.40;99.90;;;;;;5029914;28;20029;-69
2021/11/04 05:36:44;;;;;;;13.35;2.00;;;15.40;99.90;;;;;;5032651;28;20041;-70
2021/11/04 05:39:10;;;;;;;7.45;1.70;;;15.40;99.90;;;;;;5028971;28;20041;-70
2021/11/04 05:41:36;;;;;;;20.08;2.33;;;15.40;99.90;;;;;;5017979;28;20053;-70
2021/11/04 05:44:01;;;;;;;24.77;3.03;;;15.40;99.90;;;;;;5025367;28;20053;-70
2021/11/04 05:46:27;;;;;;;16.00;1.90;;;15.30;99.90;;;;;;5033166;28;20474;-69
2021/11/04 05:48:53;;;;;;;11.15;2.53;;;15.30;99.90;;;;;;5021730;28;20036;-70
2021/11/04 05:51:19;;;;;;;15.75;2.22;;;15.30;99.90;;;;;;5032470;28;20541;-70
2021/11/04 05:53:44;;;;;;;15.38;2.63;;;15.30;99.90;;;;;;5032004;28;20028;-71
2021/11/04 05:56:10;;;;;;;11.07;1.90;;;15.30;99.90;;;;;;5031917;28;20037;-71
2021/11/04 05:58:36;;;;;;;8.13;1.90;;;15.30;99.90;;;;;;5031180;28;20681;-71
2021/11/04 06:01:02;;;;;;;10.88;1.77;;;15.30;99.90;;;;;;5032732;28;20045;-71
2021/11/04 06:03:28;;;;;;;7.97;1.92;;;15.20;99.90;;;;;;5030421;28;20092;-71
2021/11/04 06:05:54;;;;;;;19.80;1.77;;;15.20;99.90;;;;;;5032513;28;20425;-71
2021/11/04 06:08:19;;;;;;;20.25;2.25;;;15.20;99.90;;;;;;5024032;28;20038;-70
2021/11/04 06:10:45;;;;;;;20.20;1.98;;;15.20;99.90;;;;;;5032642;28;20045;-71
2021/11/04 06:13:11;;;;;;;16.17;2.05;;;15.20;99.90;;;;;;5022712;28;20486;-70
2021/11/04 06:15:36;;;;;;;15.38;2.65;;;15.20;99.90;;;;;;5033151;28;20214;-71
2021/11/04 06:18:02;;;;;;;9.73;2.58;;;15.20;99.90;;;;;;5032914;28;20041;-71
2021/11/04 06:20:28;;;;;;;8.57;1.70;;;15.10;99.90;;;;;;5031642;28;20021;-71
2021/11/04 06:22:53;;;;;;;11.18;2.00;;;15.10;99.90;;;;;;5030882;28;20564;-71
2021/11/04 06:25:19;;;;;;;19.90;2.22;;;15.10;99.90;;;;;;5031628;28;20029;-70
2021/11/04 06:27:45;;;;;;;12.73;1.85;;;15.10;99.90;;;;;;5031343;28;20045;-70
2021/11/04 06:30:11;;;;;;;16.05;2.47;;;15.10;99.90;;;;;;5025582;28;20164;-70
2021/11/04 06:32:37;;;;;;;11.82;2.50;;;15.10;99.90;;;;;;5013748;28;20048;-70
2021/11/04 06:35:06;;;;;;;16.35;2.95;;;15.10;99.90;;;;;;5023540;28;20481;-70
2021/11/04 06:37:31;;;;;;;7.82;2.00;;;15.20;99.90;;;;;;5030448;28;20556;-70
2021/11/04 06:39:57;;;;;;;14.68;2.25;;;15.20;99.90;;;;;;5020500;28;20038;-70
2021/11/04 06:42:23;;;;;;;8.15;2.15;;;15.30;99.90;;;;;;5030124;28;20021;-70
2021/11/04 06:44:49;;;;;;;20.83;2.60;;;15.30;99.90;;;;;;5029146;28;20041;-71
2021/11/04 06:47:28;;;;;;;9.35;2.03;;;15.30;99.90;;;;;;5030648;28;20064;-70
2021/11/04 06:49:56;;;;;;;12.15;2.20;;;15.30;99.90;;;;;;5031163;28;20429;-70
2021/11/04 06:52:25;;;;;;;12.52;1.95;;;15.40;99.90;;;;;;5030419;28;20032;-70
2021/11/04 06:54:54;;;;;;;17.60;2.45;;;15.40;99.90;;;;;;5024419;28;20430;-70
2021/11/04 06:57:24;;;;;;;12.15;2.00;;;15.40;99.90;;;;;;5027858;28;20112;-70
2021/11/04 06:59:52;;;;;;;14.63;2.72;;;15.50;99.90;;;;;;5027270;28;20034;-71
2021/11/04 07:02:32;;;;;;;11.05;2.40;;;15.50;99.90;;;;;;5026686;28;20057;-70
2021/11/04 07:04:59;;;;;;;13.57;2.30;;;15.60;99.90;;;;;;5023038;28;20022;-70
2021/11/04 07:07:26;;;;;;;13.55;3.20;;;15.70;99.90;;;;;;5031873;28;20044;-71
2021/11/04 07:09:52;;;;;;;13.90;2.17;;;15.80;99.90;;;;;;5025492;28;20042;-70
2021/11/04 07:12:18;;;;;;;22.38;2.63;;;15.90;99.90;;;;;;5013507;28;20395;-70
2021/11/04 07:14:44;;;;;;;16.70;2.20;;;15.90;99.90;;;;;;5030258;28;20049;-71
2021/11/04 07:17:11;;;;;;;17.45;2.58;;;15.90;99.90;;;;;;5030958;28;20172;-71
2021/11/04 07:19:37;;;;;;;13.13;2.95;;;15.90;99.90;;;;;;5029398;28;20112;-71
2021/11/04 07:22:26;;;;;;;8.90;2.33;;;15.90;99.90;;;;;;5029409;28;20112;-70
2021/11/04 07:25:09;;;;;;;14.77;2.65;;;16.00;99.90;;;;;;5030306;28;20041;-71
2021/11/04 07:28:04;;;;;;;19.77;3.05;;;16.10;99.90;;;;;;5021234;28;20589;-71
2021/11/04 07:30:30;;;;;;;15.43;2.28;;;16.50;99.90;;;;;;5027979;28;20046;-71
2021/11/04 07:33:04;;;;;;;10.93;2.22;;;17.00;99.90;;;;;;5031006;28;20039;-71
2021/11/04 07:35:33;;;;;;;10.82;3.00;;;17.40;99.90;;;;;;5014394;28;20124;-71
2021/11/04 07:37:59;;;;;;;6.80;2.33;;;17.90;99.90;;;;;;5032201;28;20025;-71
2021/11/04 07:40:28;;;;;;;19.23;2.05;;;18.30;99.90;;;;;;5032599;28;20029;-71
2021/11/04 07:42:54;;;;;;;11.10;1.98;;;18.60;99.90;;;;;;5035979;28;20088;-71
2021/11/04 07:45:21;;;;;;;15.05;2.35;;;19.00;99.90;;;;;;5035611;28;20448;-71
2021/11/04 07:47:48;;;;;;;7.25;2.00;;;19.10;99.90;;;;;;5035557;28;20056;-71
2021/11/04 07:50:17;;;;;;;10.60;2.00;;;19.20;99.90;;;;;;5035812;28;20547;-71
2021/11/04 07:52:43;;;;;;;16.40;2.67;;;19.40;99.90;;;;;;5018073;28;20045;-70
2021/11/04 07:55:10;;;;;;;21.63;3.70;;;19.70;99.90;;;;;;5035662;28;20022;-71
2021/11/04 07:57:37;;;;;;;15.35;2.70;;;19.90;99.90;;;;;;5035808;28;20041;-71
2021/11/04 08:00:09;;;;;;;16.52;3.40;;;20.20;99.90;;;;;;5035372;28;20032;-71
2021/11/04 08:02:35;;;;;;;12.25;3.70;;;20.30;99.90;;;;;;5035573;28;20037;-71
2021/11/04 08:05:01;;;;;;;9.75;2.45;;;20.60;99.90;;;;;;5030410;28;20029;-72
2021/11/04 08:07:29;;;;;;;14.27;3.20;;;20.80;99.90;;;;;;5035178;28;20393;-71
2021/11/04 08:09:56;;;;;;;15.27;2.50;;;21.10;99.90;;;;;;5035622;28;20065;-71
2021/11/04 08:12:22;;;;;;;8.75;2.10;;;21.60;99.90;;;;;;5035423;28;20152;-72
2021/11/04 08:14:48;;;;;;;16.67;2.35;;;21.70;99.90;;;;;;5032680;28;20021;-71
2021/11/04 08:17:14;;;;;;;12.40;1.90;;;21.90;99.90;;;;;;5017434;28;20132;-72
2021/11/04 08:19:39;;;;;;;14.65;1.73;;;21.90;99.90;;;;;;5035389;28;20039;-72
2021/11/04 08:22:05;;;;;;;14.77;2.83;;;22.50;99.90;;;;;;5034905;28;20037;-71
2021/11/04 08:24:31;;;;;;;14.00;2.35;;;22.90;99.90;;;;;;5034749;28;20028;-72
2021/11/04 08:26:57;;;;;;;9.52;3.05;;;23.70;99.90;;;;;;5033333;28;20410;-72
2021/11/04 08:29:23;;;;;;;8.10;1.90;;;24.50;99.90;;;;;;5016105;28;20075;-71
2021/11/04 08:31:48;;;;;;;13.43;2.13;;;25.40;99.90;;;;;;5033940;28;20037;-72
2021/11/04 08:34:14;;;;;;;16.85;2.28;;;26.20;99.90;;;;;;5033233;28;20037;-72
2021/11/04 08:36:40;;;;;;;18.73;2.15;;;26.80;99.90;;;;;;5034558;28;20057;-71
2021/11/04 08:39:06;;;;;;;9.02;1.60;;;27.70;99.90;;;;;;5033720;28;20022;-72
2021/11/04 08:41:32;;;;;;;18.88;2.55;;;28.50;99.90;;;;;;5034029;28;20466;-73
2021/11/04 08:43:57;;;;;;;11.20;1.90;;;29.30;98.40;;;;;;5016132;28;20030;-72
2021/11/04 08:46:23;;;;;;;23.55;2.38;;;30.00;96.60;;;;;;5034459;28;20036;-72
2021/11/04 08:48:49;;;;;;;11.05;1.80;;;30.20;93.30;;;;;;5034431;28;20397;-72
2021/11/04 08:51:15;;;;;;;8.38;1.60;;;29.80;93.00;;;;;;5033750;28;20081;-72
2021/11/04 08:53:41;;;;;;;9.15;2.00;;;29.40;92.10;;;;;;5032736;28;20033;-72
2021/11/04 08:56:10;;;;;;;9.98;1.60;;;29.40;91.90;;;;;;5032932;28;20030;-71
2021/11/04 08:58:37;;;;;;;11.85;2.40;;;29.60;92.10;;;;;;5032945;28;20421;-72
2021/11/04 09:01:03;;;;;;;15.70;2.83;;;30.10;90.30;;;;;;5034048;28;20092;-72
2021/11/04 09:03:29;;;;;;;8.40;1.77;;;30.40;90.10;;;;;;5033792;28;20025;-72
2021/11/04 09:05:56;;;;;;;8.93;1.60;;;30.80;89.30;;;;;;5030820;28;20083;-73
2021/11/04 09:08:26;;;;;;;10.55;1.88;;;31.30;87.90;;;;;;5013277;28;20485;-71
2021/11/04 09:13:36;;;;;;;18.85;1.92;;;31.40;84.80;;;;;;5033017;28;20077;-72
2021/11/04 09:16:01;;;;;;;7.28;1.92;;;32.10;82.90;;;;;;5033414;28;20108;-71
2021/11/04 09:18:27;;;;;;;10.95;1.83;;;32.90;82.60;;;;;;5031805;28;20385;-72
2021/11/04 09:20:53;;;;;;;9.82;1.85;;;33.70;79.70;;;;;;5033470;28;20030;-72
2021/11/04 09:23:19;;;;;;;13.55;2.35;;;34.10;75.60;;;;;;5033139;28;20026;-70
2021/11/04 09:25:44;;;;;;;12.30;2.08;;;33.70;74.70;;;;;;5033180;28;20057;-71
2021/11/04 09:28:10;;;;;;;7.00;2.38;;;32.50;74.80;;;;;;5033521;28;20036;-73
2021/11/04 09:30:36;;;;;;;10.05;2.05;;;31.50;76.00;;;;;;5033178;28;20041;-73
2021/11/04 09:33:02;;;;;;;11.07;2.35;;;30.30;78.50;;;;;;5030590;28;20026;-71
2021/11/04 09:35:28;;;;;;;14.48;2.63;;;30.70;78.80;;;;;;5033247;28;20036;-70
2021/11/04 09:37:54;;;;;;;14.00;2.28;;;31.70;77.70;;;;;;5032345;28;20029;-70
2021/11/04 09:40:20;;;;;;;10.27;2.22;;;32.80;74.10;;;;;;5015161;28;20029;-71
2021/11/04 09:42:49;;;;;;;9.43;1.80;;;33.30;71.40;;;;;;5032869;28;20113;-71
2021/11/04 09:45:15;;;;;;;13.85;1.67;;;33.10;70.90;;;;;;5033262;28;20084;-71
2021/11/04 09:47:41;;;;;;;7.15;1.70;;;33.00;71.30;;;;;;5033637;28;20026;-70
2021/11/04 09:50:09;;;;;;;8.98;1.50;;;32.60;71.10;;;;;;5032198;28;20057;-70
2021/11/04 09:52:37;;;;;;;16.38;2.00;;;32.80;72.00;;;;;;5029120;28;20164;-71
2021/11/04 09:55:09;;;;;;;18.83;2.88;;;33.20;71.40;;;;;;5028965;28;20418;-71
2021/11/04 09:57:38;;;;;;;7.57;1.92;;;32.90;70.20;;;;;;5025783;28;20038;-70
2021/11/04 10:00:04;;;;;;;16.30;2.22;;;32.40;70.10;;;;;;5026867;28;20464;-71
2021/11/04 10:02:30;;;;;;;11.80;2.20;;;32.10;69.90;;;;;;5028750;28;20039;-71
2021/11/04 10:05:10;;;;;;;14.82;1.95;;;32.80;70.50;;;;;;5031194;28;20029;-71
2021/11/04 10:07:46;;;;;;;11.10;2.88;;;34.10;68.40;;;;;;5032069;28;20040;-73
2021/11/04 10:10:14;;;;;;;19.67;2.08;;;33.90;66.80;;;;;;5029227;28;20532;-71
2021/11/04 10:12:58;;;;;;;25.27;2.88;;;33.80;66.90;;;;;;5028987;28;20029;-71
2021/11/04 10:15:24;;;;;;;9.40;2.35;;;33.50;66.70;;;;;;5031732;28;20032;-70
2021/11/04 10:17:50;;;;;;;9.88;1.73;;;33.80;67.70;;;;;;5032248;28;20022;-71
2021/11/04 10:20:27;;;;;;;12.05;2.30;;;34.90;66.40;;;;;;5031590;28;20037;-71
2021/11/04 10:23:04;;;;;;;12.88;2.60;;;34.90;65.40;;;;;;5014083;28;20180;-71
2021/11/04 10:25:31;;;;;;;10.95;2.05;;;34.70;64.30;;;;;;5031385;28;20053;-71
2021/11/04 10:27:58;;;;;;;12.15;2.28;;;34.50;65.10;;;;;;5030578;28;20418;-71
2021/11/04 10:30:37;;;;;;;9.63;1.77;;;34.50;63.70;;;;;;5031432;28;20490;-71
2021/11/04 10:33:30;;;;;;;14.38;2.45;;;34.00;64.70;;;;;;5031537;28;20034;-71
2021/11/04 10:36:04;;;;;;;20.02;2.25;;;32.50;66.40;;;;;;5025751;28;20390;-71
2021/11/04 10:38:48;;;;;;;28.05;2.42;;;31.40;68.40;;;;;;5028619;28;20072;-71
2021/11/04 10:41:20;;;;;;;23.80;3.35;;;32.30;68.50;;;;;;5031015;28;20037;-72
2021/11/04 10:43:53;;;;;;;14.05;2.17;;;31.10;67.70;;;;;;5030572;28;20029;-72
2021/11/04 10:46:19;;;;;;;14.63;2.72;;;29.30;71.00;;;;;;5030819;28;20021;-72
2021/11/04 10:48:47;;;;;;;10.23;1.95;;;27.40;75.10;;;;;;5013061;28;20034;-71
2021/11/04 10:51:18;;;;;;;16.58;2.90;;;25.80;78.30;;;;;;5010780;28;20132;-71
2021/11/04 10:53:54;;;;;;;17.80;2.78;;;24.60;80.40;;;;;;5028788;28;20033;-71
2021/11/04 10:56:22;;;;;;;22.75;2.92;;;23.80;83.40;;;;;;5031160;28;20049;-71
2021/11/04 10:58:55;;;;;;;20.42;2.40;;;23.20;84.20;;;;;;5031423;28;20037;-72
2021/11/04 11:01:44;;;;;;;11.43;2.40;;;22.60;86.30;;;;;;5031471;28;20037;-71
2021/11/04 11:04:20;;;;;;;14.48;2.35;;;22.20;86.40;;;;;;5030025;28;20038;-71
2021/11/04 11:06:53;;;;;;;14.02;2.83;;;21.90;88.20;;;;;;5031363;28;20026;-72
2021/11/04 11:09:25;;;;;;;9.07;2.13;;;21.80;89.20;;;;;;5028879;28;20022;-72
2021/11/04 11:11:57;;;;;;;21.92;3.38;;;21.60;90.00;;;;;;5030295;28;20041;-71
2021/11/04 11:14:24;;;;;;;18.42;3.13;;;21.50;89.50;;;;;;5014709;28;20037;-71
2021/11/04 11:16:51;;;;;;;14.07;2.50;;;21.40;89.30;;;;;;5034721;28;20025;-72
2021/11/04 11:19:28;;;;;;;16.52;3.03;;;21.50;89.50;;;;;;5035262;28;20041;-71
2021/11/04 11:21:55;;;;;;;16.70;2.67;;;21.50;90.10;;;;;;5034976;28;20513;-71
2021/11/04 11:24:32;;;;;;;14.75;2.20;;;21.40;91.00;;;;;;5034826;28;20034;-71
2021/11/04 11:27:01;;;;;;;10.70;2.95;;;21.30;90.60;;;;;;5034850;28;20064;-71
2021/11/04 11:29:33;;;;;;;12.88;2.03;;;21.10;90.10;;;;;;5034745;28;20030;-71
2021/11/04 11:31:59;;;;;;;11.77;2.50;;;20.80;90.30;;;;;;5034677;28;20026;-71
2021/11/04 11:34:29;;;;;;;13.20;2.67;;;20.70;90.80;;;;;;5035280;28;20036;-72
2021/11/04 11:37:05;;;;;;;14.57;2.38;;;20.70;91.30;;;;;;5034999;28;20091;-72
2021/11/04 11:39:39;;;;;;;13.98;2.42;;;20.60;90.70;;;;;;5034636;28;20112;-72
2021/11/04 11:42:07;;;;;;;22.98;3.40;;;20.30;91.20;;;;;;5034190;28;20045;-72
2021/11/04 11:45:02;;;;;;;18.20;2.35;;;20.30;92.20;;;;;;5034131;28;20032;-72
2021/11/04 11:47:35;;;;;;;20.13;2.22;;;20.30;91.70;;;;;;5017323;28;20029;-71
2021/11/04 11:50:19;;;;;;;16.58;2.67;;;20.30;92.40;;;;;;5007543;28;20782;-72
2021/11/04 11:52:53;;;;;;;18.55;4.00;;;20.30;92.70;;;;;;5027560;28;20025;-71
2021/11/04 11:55:32;;;;;;;16.02;3.20;;;20.20;92.70;;;;;;5034641;28;20393;-72
2021/11/04 11:58:16;;;;;;;13.45;2.38;;;20.00;92.00;;;;;;5033909;28;20030;-72
2021/11/04 12:01:11;;;;;;;14.32;2.10;;;19.80;92.20;;;;;;5034912;28;20029;-72
2021/11/04 12:03:38;;;;;;;17.10;2.40;;;19.80;93.20;;;;;;5032192;28;20026;-71
2021/11/04 12:06:26;;;;;;;14.90;2.40;;;19.70;93.20;;;;;;5033535;28;20018;-72
2021/11/04 12:08:56;;;;;;;17.02;2.83;;;19.70;93.00;;;;;;5034508;28;20043;-72
2021/11/04 12:11:34;;;;;;;14.55;1.98;;;19.90;93.40;;;;;;5035342;28;20070;-72
2021/11/04 12:14:18;;;;;;;28.15;3.35;;;19.90;93.50;;;;;;5014298;28;20267;-72
2021/11/04 12:17:05;;;;;;;19.15;2.85;;;19.90;93.90;;;;;;5033953;28;20088;-72
2021/11/04 12:19:49;;;;;;;14.10;2.58;;;19.90;94.30;;;;;;5022916;28;20034;-72
2021/11/04 12:22:18;;;;;;;11.48;2.15;;;19.80;93.60;;;;;;5032593;28;20510;-71
2021/11/04 12:24:58;;;;;;;22.52;2.90;;;19.70;93.40;;;;;;5034447;28;20123;-72
2021/11/04 12:27:27;;;;;;;15.13;2.78;;;19.60;94.60;;;;;;5033815;28;20096;-71
2021/11/04 12:29:54;;;;;;;7.97;1.95;;;19.60;94.50;;;;;;5034179;28;20472;-71
2021/11/04 12:32:23;;;;;;;16.50;2.75;;;19.70;94.40;;;;;;5033398;28;20188;-72
2021/11/04 12:34:59;;;;;;;16.42;2.55;;;19.70;95.30;;;;;;5034094;28;20160;-72
2021/11/04 12:37:30;;;;;;;10.65;2.00;;;19.80;95.30;;;;;;5015860;28;20029;-72
2021/11/04 12:40:04;;;;;;;13.82;2.05;;;19.70;95.30;;;;;;5034218;28;20024;-72
2021/11/04 12:42:30;;;;;;;12.40;2.42;;;19.60;94.90;;;;;;5032137;28;20033;-72
2021/11/04 12:44:56;;;;;;;11.73;2.20;;;19.50;94.90;;;;;;5033441;28;20112;-71
2021/11/04 12:47:24;;;;;;;11.10;2.42;;;19.40;95.60;;;;;;5034495;28;20028;-72